sensor_id;sensor_type;location;lat;lon;timestamp;P1;durP1;ratioP1;P2;durP2;ratioP2
36651;SDS011;53334;51.976;20.144;2023-03-19T00:01:16;10.05;;;6.22;;
36651;SDS011;53334;51.976;20.144;2023-03-19T00:03:50;13.50;;;7.82;;
36651;SDS011;53334;51.976;20.144;2023-03-19T00:06:23;13.38;;;7.93;;
36651;SDS011;53334;51.976;20.144;2023-03-19T00:08:57;9.40;;;7.18;;
36651;SDS011;53334;51.976;20.144;2023-03-19T00:11:31;13.98;;;7.97;;
36651;SDS011;53334;51.976;20.144;2023-03-19T00:16:39;11.90;;;6.93;;
36651;SDS011;53334;51.976;20.144;2023-03-19T00:19:13;11.07;;;7.72;;
36651;SDS011;53334;51.976;20.144;2023-03-19T00:21:46;13.70;;;7.32;;
36651;SDS011;53334;51.976;20.144;2023-03-19T00:24:20;9.68;;;7.28;;
36651;SDS011;53334;51.976;20.144;2023-03-19T00:26:53;13.43;;;7.72;;
36651;SDS011;53334;51.976;20.144;2023-03-19T00:29:27;12.18;;;8.48;;
36651;SDS011;53334;51.976;20.144;2023-03-19T00:34:36;10.45;;;6.88;;
36651;SDS011;53334;51.976;20.144;2023-03-19T00:37:09;10.73;;;7.20;;
36651;SDS011;53334;51.976;20.144;2023-03-19T00:39:43;11.18;;;7.18;;
36651;SDS011;53334;51.976;20.144;2023-03-19T00:42:18;12.57;;;7.78;;
36651;SDS011;53334;51.976;20.144;2023-03-19T00:44:51;9.82;;;6.70;;
36651;SDS011;53334;51.976;20.144;2023-03-19T00:47:26;12.93;;;7.57;;
36651;SDS011;53334;51.976;20.144;2023-03-19T00:49:59;10.05;;;7.38;;
36651;SDS011;53334;51.976;20.144;2023-03-19T00:52:33;14.73;;;7.75;;
36651;SDS011;53334;51.976;20.144;2023-03-19T00:55:07;11.18;;;7.50;;
36651;SDS011;53334;51.976;20.144;2023-03-19T00:57:41;12.50;;;7.35;;
36651;SDS011;53334;51.976;20.144;2023-03-19T01:00:15;9.75;;;6.90;;
36651;SDS011;53334;51.976;20.144;2023-03-19T01:02:49;11.85;;;7.63;;
36651;SDS011;53334;51.976;20.144;2023-03-19T01:05:23;10.55;;;7.05;;
36651;SDS011;53334;51.976;20.144;2023-03-19T01:07:56;10.45;;;6.85;;
36651;SDS011;53334;51.976;20.144;2023-03-19T01:10:31;9.80;;;7.25;;
36651;SDS011;53334;51.976;20.144;2023-03-19T01:13:06;12.82;;;7.38;;
36651;SDS011;53334;51.976;20.144;2023-03-19T01:15:41;13.45;;;6.85;;
36651;SDS011;53334;51.976;20.144;2023-03-19T01:18:16;10.15;;;6.72;;
36651;SDS011;53334;51.976;20.144;2023-03-19T01:20:50;11.65;;;7.30;;
36651;SDS011;53334;51.976;20.144;2023-03-19T01:23:23;10.65;;;6.97;;
36651;SDS011;53334;51.976;20.144;2023-03-19T01:25:56;12.38;;;7.00;;
36651;SDS011;53334;51.976;20.144;2023-03-19T01:28:32;9.40;;;7.00;;
36651;SDS011;53334;51.976;20.144;2023-03-19T01:31:06;11.45;;;6.82;;
36651;SDS011;53334;51.976;20.144;2023-03-19T01:33:44;10.93;;;5.82;;
36651;SDS011;53334;51.976;20.144;2023-03-19T01:36:30;10.38;;;7.15;;
36651;SDS011;53334;51.976;20.144;2023-03-19T01:39:06;10.27;;;7.05;;
36651;SDS011;53334;51.976;20.144;2023-03-19T01:41:39;11.27;;;7.28;;
36651;SDS011;53334;51.976;20.144;2023-03-19T01:44:31;10.65;;;6.63;;
36651;SDS011;53334;51.976;20.144;2023-03-19T01:47:28;9.88;;;7.00;;
36651;SDS011;53334;51.976;20.144;2023-03-19T01:50:26;9.32;;;6.85;;
36651;SDS011;53334;51.976;20.144;2023-03-19T01:53:26;12.48;;;7.70;;
36651;SDS011;53334;51.976;20.144;2023-03-19T01:56:11;9.45;;;7.05;;
36651;SDS011;53334;51.976;20.144;2023-03-19T01:58:59;11.50;;;7.10;;
36651;SDS011;53334;51.976;20.144;2023-03-19T02:02:00;9.98;;;7.13;;
36651;SDS011;53334;51.976;20.144;2023-03-19T02:04:39;14.75;;;7.20;;
36651;SDS011;53334;51.976;20.144;2023-03-19T02:07:16;11.95;;;6.68;;
36651;SDS011;53334;51.976;20.144;2023-03-19T02:09:50;15.63;;;7.30;;
36651;SDS011;53334;51.976;20.144;2023-03-19T02:12:24;11.00;;;6.55;;
36651;SDS011;53334;51.976;20.144;2023-03-19T02:14:58;8.98;;;6.63;;
36651;SDS011;53334;51.976;20.144;2023-03-19T02:17:32;10.60;;;7.20;;
36651;SDS011;53334;51.976;20.144;2023-03-19T02:20:07;10.27;;;6.68;;
36651;SDS011;53334;51.976;20.144;2023-03-19T02:22:50;10.10;;;6.68;;
36651;SDS011;53334;51.976;20.144;2023-03-19T02:25:29;13.10;;;6.65;;
36651;SDS011;53334;51.976;20.144;2023-03-19T02:28:10;11.65;;;6.78;;
36651;SDS011;53334;51.976;20.144;2023-03-19T02:30:47;10.32;;;7.20;;
36651;SDS011;53334;51.976;20.144;2023-03-19T02:33:21;10.15;;;6.55;;
36651;SDS011;53334;51.976;20.144;2023-03-19T02:35:54;10.00;;;5.72;;
36651;SDS011;53334;51.976;20.144;2023-03-19T02:38:29;10.02;;;6.95;;
36651;SDS011;53334;51.976;20.144;2023-03-19T02:41:06;11.38;;;7.03;;
36651;SDS011;53334;51.976;20.144;2023-03-19T02:43:41;10.27;;;7.03;;
36651;SDS011;53334;51.976;20.144;2023-03-19T02:46:15;10.23;;;5.97;;
36651;SDS011;53334;51.976;20.144;2023-03-19T02:48:48;9.20;;;5.50;;
36651;SDS011;53334;51.976;20.144;2023-03-19T02:51:23;7.90;;;5.85;;
36651;SDS011;53334;51.976;20.144;2023-03-19T02:53:56;13.85;;;6.03;;
36651;SDS011;53334;51.976;20.144;2023-03-19T02:56:31;9.05;;;6.15;;
36651;SDS011;53334;51.976;20.144;2023-03-19T03:01:40;9.15;;;6.05;;
36651;SDS011;53334;51.976;20.144;2023-03-19T03:04:13;15.73;;;6.13;;
36651;SDS011;53334;51.976;20.144;2023-03-19T03:06:48;9.10;;;5.70;;
36651;SDS011;53334;51.976;20.144;2023-03-19T03:09:21;9.25;;;5.75;;
36651;SDS011;53334;51.976;20.144;2023-03-19T03:11:55;7.13;;;5.28;;
36651;SDS011;53334;51.976;20.144;2023-03-19T03:14:30;8.77;;;5.20;;
36651;SDS011;53334;51.976;20.144;2023-03-19T03:17:03;9.13;;;5.35;;
36651;SDS011;53334;51.976;20.144;2023-03-19T03:19:38;10.82;;;6.50;;
36651;SDS011;53334;51.976;20.144;2023-03-19T03:22:12;8.00;;;5.43;;
36651;SDS011;53334;51.976;20.144;2023-03-19T03:24:45;10.95;;;6.03;;
36651;SDS011;53334;51.976;20.144;2023-03-19T03:27:19;8.70;;;5.90;;
36651;SDS011;53334;51.976;20.144;2023-03-19T03:29:53;9.98;;;6.15;;
36651;SDS011;53334;51.976;20.144;2023-03-19T03:32:27;7.43;;;5.18;;
36651;SDS011;53334;51.976;20.144;2023-03-19T03:35:00;9.60;;;6.65;;
36651;SDS011;53334;51.976;20.144;2023-03-19T03:40:08;11.27;;;4.82;;
36651;SDS011;53334;51.976;20.144;2023-03-19T03:42:43;10.23;;;5.65;;
36651;SDS011;53334;51.976;20.144;2023-03-19T03:50:24;9.82;;;6.35;;
36651;SDS011;53334;51.976;20.144;2023-03-19T03:53:00;8.43;;;5.55;;
36651;SDS011;53334;51.976;20.144;2023-03-19T03:55:33;6.38;;;4.85;;
36651;SDS011;53334;51.976;20.144;2023-03-19T04:00:41;10.40;;;5.00;;
36651;SDS011;53334;51.976;20.144;2023-03-19T04:03:15;9.80;;;5.97;;
36651;SDS011;53334;51.976;20.144;2023-03-19T04:08:24;8.35;;;5.40;;
36651;SDS011;53334;51.976;20.144;2023-03-19T04:10:57;8.73;;;6.05;;
36651;SDS011;53334;51.976;20.144;2023-03-19T04:13:30;9.07;;;5.28;;
36651;SDS011;53334;51.976;20.144;2023-03-19T04:16:09;13.70;;;6.65;;
36651;SDS011;53334;51.976;20.144;2023-03-19T04:18:43;11.00;;;5.70;;
36651;SDS011;53334;51.976;20.144;2023-03-19T04:21:16;7.03;;;5.07;;
36651;SDS011;53334;51.976;20.144;2023-03-19T04:23:50;10.07;;;6.85;;
36651;SDS011;53334;51.976;20.144;2023-03-19T04:26:23;13.05;;;6.10;;
36651;SDS011;53334;51.976;20.144;2023-03-19T04:28:57;8.32;;;5.13;;
36651;SDS011;53334;51.976;20.144;2023-03-19T04:31:32;7.78;;;5.03;;
36651;SDS011;53334;51.976;20.144;2023-03-19T04:34:06;10.48;;;5.95;;
36651;SDS011;53334;51.976;20.144;2023-03-19T04:36:39;10.23;;;5.50;;
36651;SDS011;53334;51.976;20.144;2023-03-19T04:39:13;7.90;;;5.72;;
36651;SDS011;53334;51.976;20.144;2023-03-19T04:41:46;10.00;;;5.00;;
36651;SDS011;53334;51.976;20.144;2023-03-19T04:44:39;7.95;;;5.35;;
36651;SDS011;53334;51.976;20.144;2023-03-19T04:47:15;9.23;;;5.93;;
36651;SDS011;53334;51.976;20.144;2023-03-19T04:49:58;8.52;;;5.20;;
36651;SDS011;53334;51.976;20.144;2023-03-19T04:52:34;12.52;;;5.43;;
36651;SDS011;53334;51.976;20.144;2023-03-19T04:55:09;10.48;;;5.65;;
36651;SDS011;53334;51.976;20.144;2023-03-19T04:57:57;10.38;;;4.97;;
36651;SDS011;53334;51.976;20.144;2023-03-19T05:00:32;9.18;;;5.65;;
36651;SDS011;53334;51.976;20.144;2023-03-19T05:03:08;9.38;;;6.00;;
36651;SDS011;53334;51.976;20.144;2023-03-19T05:05:42;10.40;;;5.40;;
36651;SDS011;53334;51.976;20.144;2023-03-19T05:08:16;7.63;;;5.20;;
36651;SDS011;53334;51.976;20.144;2023-03-19T05:10:49;10.00;;;5.57;;
36651;SDS011;53334;51.976;20.144;2023-03-19T05:13:23;18.48;;;5.57;;
36651;SDS011;53334;51.976;20.144;2023-03-19T05:15:57;10.93;;;5.53;;
36651;SDS011;53334;51.976;20.144;2023-03-19T05:21:08;8.95;;;5.65;;
36651;SDS011;53334;51.976;20.144;2023-03-19T05:23:43;8.95;;;5.07;;
36651;SDS011;53334;51.976;20.144;2023-03-19T05:26:16;8.32;;;5.43;;
36651;SDS011;53334;51.976;20.144;2023-03-19T05:29:10;13.27;;;6.45;;
36651;SDS011;53334;51.976;20.144;2023-03-19T05:31:57;11.15;;;5.68;;
36651;SDS011;53334;51.976;20.144;2023-03-19T05:34:36;9.30;;;5.72;;
36651;SDS011;53334;51.976;20.144;2023-03-19T05:37:10;8.93;;;5.90;;
36651;SDS011;53334;51.976;20.144;2023-03-19T05:39:44;10.20;;;5.95;;
36651;SDS011;53334;51.976;20.144;2023-03-19T05:42:18;7.13;;;5.45;;
36651;SDS011;53334;51.976;20.144;2023-03-19T05:44:51;12.07;;;5.82;;
36651;SDS011;53334;51.976;20.144;2023-03-19T05:47:28;7.95;;;4.85;;
36651;SDS011;53334;51.976;20.144;2023-03-19T05:50:04;8.68;;;5.30;;
36651;SDS011;53334;51.976;20.144;2023-03-19T05:52:38;13.57;;;5.95;;
36651;SDS011;53334;51.976;20.144;2023-03-19T05:55:11;10.00;;;5.20;;
36651;SDS011;53334;51.976;20.144;2023-03-19T05:57:50;10.60;;;5.57;;
36651;SDS011;53334;51.976;20.144;2023-03-19T06:00:28;7.05;;;5.30;;
36651;SDS011;53334;51.976;20.144;2023-03-19T06:03:01;10.57;;;6.30;;
36651;SDS011;53334;51.976;20.144;2023-03-19T06:05:48;10.32;;;5.10;;
36651;SDS011;53334;51.976;20.144;2023-03-19T06:08:45;10.48;;;6.03;;
36651;SDS011;53334;51.976;20.144;2023-03-19T06:11:23;12.35;;;5.55;;
36651;SDS011;53334;51.976;20.144;2023-03-19T06:14:19;12.45;;;6.20;;
36651;SDS011;53334;51.976;20.144;2023-03-19T06:17:09;10.48;;;5.82;;
36651;SDS011;53334;51.976;20.144;2023-03-19T06:19:43;7.15;;;5.20;;
36651;SDS011;53334;51.976;20.144;2023-03-19T06:22:18;9.63;;;5.80;;
36651;SDS011;53334;51.976;20.144;2023-03-19T06:24:52;12.63;;;5.97;;
36651;SDS011;53334;51.976;20.144;2023-03-19T06:27:25;12.38;;;6.13;;
36651;SDS011;53334;51.976;20.144;2023-03-19T06:30:10;9.15;;;6.45;;
36651;SDS011;53334;51.976;20.144;2023-03-19T06:32:43;9.07;;;5.75;;
36651;SDS011;53334;51.976;20.144;2023-03-19T06:35:18;9.77;;;6.22;;
36651;SDS011;53334;51.976;20.144;2023-03-19T06:37:54;12.80;;;6.30;;
36651;SDS011;53334;51.976;20.144;2023-03-19T06:40:27;9.35;;;5.75;;
36651;SDS011;53334;51.976;20.144;2023-03-19T06:43:01;10.68;;;5.88;;
36651;SDS011;53334;51.976;20.144;2023-03-19T06:45:34;9.90;;;5.40;;
36651;SDS011;53334;51.976;20.144;2023-03-19T06:48:08;12.98;;;5.85;;
36651;SDS011;53334;51.976;20.144;2023-03-19T06:50:41;9.95;;;6.20;;
36651;SDS011;53334;51.976;20.144;2023-03-19T06:53:17;9.07;;;6.38;;
36651;SDS011;53334;51.976;20.144;2023-03-19T06:55:51;10.68;;;6.20;;
36651;SDS011;53334;51.976;20.144;2023-03-19T06:58:25;8.35;;;5.43;;
36651;SDS011;53334;51.976;20.144;2023-03-19T07:00:58;9.63;;;6.05;;
36651;SDS011;53334;51.976;20.144;2023-03-19T07:06:05;8.85;;;5.72;;
36651;SDS011;53334;51.976;20.144;2023-03-19T07:08:40;8.25;;;5.95;;
36651;SDS011;53334;51.976;20.144;2023-03-19T07:11:16;10.80;;;6.45;;
36651;SDS011;53334;51.976;20.144;2023-03-19T07:13:50;11.98;;;6.60;;
36651;SDS011;53334;51.976;20.144;2023-03-19T07:16:23;10.60;;;6.50;;
36651;SDS011;53334;51.976;20.144;2023-03-19T07:18:57;8.70;;;5.90;;
36651;SDS011;53334;51.976;20.144;2023-03-19T07:21:30;8.73;;;6.28;;
36651;SDS011;53334;51.976;20.144;2023-03-19T07:24:05;12.95;;;6.40;;
36651;SDS011;53334;51.976;20.144;2023-03-19T07:26:38;10.88;;;5.97;;
36651;SDS011;53334;51.976;20.144;2023-03-19T07:29:12;9.45;;;5.38;;
36651;SDS011;53334;51.976;20.144;2023-03-19T07:31:46;15.02;;;6.78;;
36651;SDS011;53334;51.976;20.144;2023-03-19T07:34:19;10.15;;;6.47;;
36651;SDS011;53334;51.976;20.144;2023-03-19T07:36:53;8.82;;;6.45;;
36651;SDS011;53334;51.976;20.144;2023-03-19T07:39:28;9.65;;;6.10;;
36651;SDS011;53334;51.976;20.144;2023-03-19T07:42:02;12.57;;;5.75;;
36651;SDS011;53334;51.976;20.144;2023-03-19T07:44:36;12.75;;;5.78;;
36651;SDS011;53334;51.976;20.144;2023-03-19T07:47:09;11.05;;;5.97;;
36651;SDS011;53334;51.976;20.144;2023-03-19T07:49:58;8.55;;;5.47;;
36651;SDS011;53334;51.976;20.144;2023-03-19T07:52:32;9.98;;;5.65;;
36651;SDS011;53334;51.976;20.144;2023-03-19T07:55:07;12.13;;;5.72;;
36651;SDS011;53334;51.976;20.144;2023-03-19T07:57:41;8.35;;;5.32;;
36651;SDS011;53334;51.976;20.144;2023-03-19T08:00:15;10.38;;;5.45;;
36651;SDS011;53334;51.976;20.144;2023-03-19T08:02:50;8.38;;;5.25;;
36651;SDS011;53334;51.976;20.144;2023-03-19T08:05:24;11.95;;;6.07;;
36651;SDS011;53334;51.976;20.144;2023-03-19T08:07:57;9.75;;;5.13;;
36651;SDS011;53334;51.976;20.144;2023-03-19T08:10:32;14.05;;;6.00;;
36651;SDS011;53334;51.976;20.144;2023-03-19T08:13:08;14.73;;;5.45;;
36651;SDS011;53334;51.976;20.144;2023-03-19T08:15:42;16.92;;;5.32;;
36651;SDS011;53334;51.976;20.144;2023-03-19T08:18:15;10.65;;;5.50;;
36651;SDS011;53334;51.976;20.144;2023-03-19T08:23:22;12.43;;;4.68;;
36651;SDS011;53334;51.976;20.144;2023-03-19T08:25:59;21.00;;;14.13;;
36651;SDS011;53334;51.976;20.144;2023-03-19T08:28:32;25.80;;;18.10;;
36651;SDS011;53334;51.976;20.144;2023-03-19T08:31:08;24.92;;;14.63;;
36651;SDS011;53334;51.976;20.144;2023-03-19T08:33:42;20.55;;;12.23;;
36651;SDS011;53334;51.976;20.144;2023-03-19T08:36:16;23.52;;;12.07;;
36651;SDS011;53334;51.976;20.144;2023-03-19T08:41:26;15.70;;;10.93;;
36651;SDS011;53334;51.976;20.144;2023-03-19T08:44:00;15.55;;;11.63;;
36651;SDS011;53334;51.976;20.144;2023-03-19T08:46:33;17.02;;;10.23;;
36651;SDS011;53334;51.976;20.144;2023-03-19T08:49:08;17.92;;;10.35;;
36651;SDS011;53334;51.976;20.144;2023-03-19T08:51:41;24.83;;;10.30;;
36651;SDS011;53334;51.976;20.144;2023-03-19T08:54:15;21.42;;;10.35;;
36651;SDS011;53334;51.976;20.144;2023-03-19T08:56:51;24.23;;;10.80;;
36651;SDS011;53334;51.976;20.144;2023-03-19T08:59:25;19.35;;;10.98;;
36651;SDS011;53334;51.976;20.144;2023-03-19T09:01:58;35.80;;;11.38;;
36651;SDS011;53334;51.976;20.144;2023-03-19T09:04:32;20.88;;;10.55;;
36651;SDS011;53334;51.976;20.144;2023-03-19T09:07:09;17.83;;;9.63;;
36651;SDS011;53334;51.976;20.144;2023-03-19T09:09:46;19.55;;;10.35;;
36651;SDS011;53334;51.976;20.144;2023-03-19T09:12:21;23.27;;;11.68;;
36651;SDS011;53334;51.976;20.144;2023-03-19T09:14:54;19.92;;;11.13;;
36651;SDS011;53334;51.976;20.144;2023-03-19T09:17:27;16.02;;;10.20;;
36651;SDS011;53334;51.976;20.144;2023-03-19T09:20:01;17.30;;;10.20;;
36651;SDS011;53334;51.976;20.144;2023-03-19T09:22:36;24.25;;;9.95;;
36651;SDS011;53334;51.976;20.144;2023-03-19T09:25:10;16.52;;;10.48;;
36651;SDS011;53334;51.976;20.144;2023-03-19T09:27:44;13.93;;;10.10;;
36651;SDS011;53334;51.976;20.144;2023-03-19T09:30:18;17.65;;;9.13;;
36651;SDS011;53334;51.976;20.144;2023-03-19T09:32:52;21.65;;;11.20;;
36651;SDS011;53334;51.976;20.144;2023-03-19T09:35:26;16.05;;;9.93;;
36651;SDS011;53334;51.976;20.144;2023-03-19T09:38:01;17.48;;;9.90;;
36651;SDS011;53334;51.976;20.144;2023-03-19T09:40:35;13.13;;;9.45;;
36651;SDS011;53334;51.976;20.144;2023-03-19T09:43:28;18.92;;;11.60;;
36651;SDS011;53334;51.976;20.144;2023-03-19T09:46:12;15.38;;;9.98;;
36651;SDS011;53334;51.976;20.144;2023-03-19T09:48:48;12.68;;;9.60;;
36651;SDS011;53334;51.976;20.144;2023-03-19T09:51:27;14.05;;;9.90;;
36651;SDS011;53334;51.976;20.144;2023-03-19T09:54:07;17.25;;;10.10;;
36651;SDS011;53334;51.976;20.144;2023-03-19T09:56:52;14.18;;;8.90;;
36651;SDS011;53334;51.976;20.144;2023-03-19T10:02:04;12.30;;;8.38;;
36651;SDS011;53334;51.976;20.144;2023-03-19T10:04:59;15.63;;;9.95;;
36651;SDS011;53334;51.976;20.144;2023-03-19T10:07:45;11.50;;;9.15;;
36651;SDS011;53334;51.976;20.144;2023-03-19T10:10:32;10.95;;;7.80;;
36651;SDS011;53334;51.976;20.144;2023-03-19T10:13:24;13.52;;;9.18;;
36651;SDS011;53334;51.976;20.144;2023-03-19T10:16:10;12.00;;;8.68;;
36651;SDS011;53334;51.976;20.144;2023-03-19T10:18:49;12.43;;;9.00;;
36651;SDS011;53334;51.976;20.144;2023-03-19T10:21:25;12.88;;;8.18;;
36651;SDS011;53334;51.976;20.144;2023-03-19T10:24:05;13.52;;;8.70;;
36651;SDS011;53334;51.976;20.144;2023-03-19T10:26:43;14.43;;;8.13;;
36651;SDS011;53334;51.976;20.144;2023-03-19T10:31:55;11.02;;;8.32;;
36651;SDS011;53334;51.976;20.144;2023-03-19T10:34:40;13.38;;;9.23;;
36651;SDS011;53334;51.976;20.144;2023-03-19T10:37:14;11.52;;;8.13;;
36651;SDS011;53334;51.976;20.144;2023-03-19T10:39:51;11.65;;;8.25;;
36651;SDS011;53334;51.976;20.144;2023-03-19T10:42:33;9.82;;;7.68;;
36651;SDS011;53334;51.976;20.144;2023-03-19T10:45:20;12.23;;;8.10;;
36651;SDS011;53334;51.976;20.144;2023-03-19T10:47:59;12.75;;;7.70;;
36651;SDS011;53334;51.976;20.144;2023-03-19T10:50:34;13.07;;;7.68;;
36651;SDS011;53334;51.976;20.144;2023-03-19T10:53:20;11.35;;;8.35;;
36651;SDS011;53334;51.976;20.144;2023-03-19T10:56:01;11.75;;;7.65;;
36651;SDS011;53334;51.976;20.144;2023-03-19T10:58:37;11.10;;;7.38;;
36651;SDS011;53334;51.976;20.144;2023-03-19T11:01:11;8.40;;;6.72;;
36651;SDS011;53334;51.976;20.144;2023-03-19T11:03:50;10.77;;;7.28;;
36651;SDS011;53334;51.976;20.144;2023-03-19T11:06:30;15.90;;;7.32;;
36651;SDS011;53334;51.976;20.144;2023-03-19T11:09:11;10.93;;;7.28;;
36651;SDS011;53334;51.976;20.144;2023-03-19T11:11:47;16.00;;;7.15;;
36651;SDS011;53334;51.976;20.144;2023-03-19T11:14:24;9.77;;;7.45;;
36651;SDS011;53334;51.976;20.144;2023-03-19T11:17:04;11.10;;;7.55;;
36651;SDS011;53334;51.976;20.144;2023-03-19T11:19:49;10.75;;;7.72;;
36651;SDS011;53334;51.976;20.144;2023-03-19T11:22:25;10.05;;;7.28;;
36651;SDS011;53334;51.976;20.144;2023-03-19T11:25:04;16.33;;;7.97;;
36651;SDS011;53334;51.976;20.144;2023-03-19T11:27:56;11.23;;;7.90;;
36651;SDS011;53334;51.976;20.144;2023-03-19T11:30:35;12.45;;;8.43;;
36651;SDS011;53334;51.976;20.144;2023-03-19T11:36:27;16.13;;;7.65;;
36651;SDS011;53334;51.976;20.144;2023-03-19T11:39:08;12.63;;;8.25;;
36651;SDS011;53334;51.976;20.144;2023-03-19T11:41:57;11.35;;;7.13;;
36651;SDS011;53334;51.976;20.144;2023-03-19T11:44:44;12.40;;;8.05;;
36651;SDS011;53334;51.976;20.144;2023-03-19T11:47:27;9.70;;;7.07;;
36651;SDS011;53334;51.976;20.144;2023-03-19T11:50:12;10.75;;;7.25;;
36651;SDS011;53334;51.976;20.144;2023-03-19T11:53:01;11.40;;;7.63;;
36651;SDS011;53334;51.976;20.144;2023-03-19T11:55:46;12.60;;;7.57;;
36651;SDS011;53334;51.976;20.144;2023-03-19T11:58:28;10.18;;;7.57;;
36651;SDS011;53334;51.976;20.144;2023-03-19T12:01:22;13.55;;;6.85;;
36651;SDS011;53334;51.976;20.144;2023-03-19T12:04:14;13.77;;;7.68;;
36651;SDS011;53334;51.976;20.144;2023-03-19T12:07:09;10.13;;;7.50;;
36651;SDS011;53334;51.976;20.144;2023-03-19T12:09:54;11.38;;;6.82;;
36651;SDS011;53334;51.976;20.144;2023-03-19T12:12:36;10.07;;;6.65;;
36651;SDS011;53334;51.976;20.144;2023-03-19T12:15:18;10.38;;;6.93;;
36651;SDS011;53334;51.976;20.144;2023-03-19T12:18:00;11.25;;;7.28;;
36651;SDS011;53334;51.976;20.144;2023-03-19T12:20:45;10.90;;;6.68;;
36651;SDS011;53334;51.976;20.144;2023-03-19T12:26:08;11.63;;;6.70;;
36651;SDS011;53334;51.976;20.144;2023-03-19T12:28:46;7.78;;;6.32;;
36651;SDS011;53334;51.976;20.144;2023-03-19T12:31:27;8.75;;;6.50;;
36651;SDS011;53334;51.976;20.144;2023-03-19T12:34:17;10.05;;;5.85;;
36651;SDS011;53334;51.976;20.144;2023-03-19T12:37:06;6.60;;;5.47;;
36651;SDS011;53334;51.976;20.144;2023-03-19T12:39:47;7.72;;;6.18;;
36651;SDS011;53334;51.976;20.144;2023-03-19T12:42:28;8.57;;;6.80;;
36651;SDS011;53334;51.976;20.144;2023-03-19T12:45:11;10.98;;;6.40;;
36651;SDS011;53334;51.976;20.144;2023-03-19T12:47:55;7.78;;;6.05;;
36651;SDS011;53334;51.976;20.144;2023-03-19T12:50:35;10.23;;;6.50;;
36651;SDS011;53334;51.976;20.144;2023-03-19T12:53:16;9.65;;;5.80;;
36651;SDS011;53334;51.976;20.144;2023-03-19T12:55:59;11.10;;;6.13;;
36651;SDS011;53334;51.976;20.144;2023-03-19T12:58:44;6.95;;;5.25;;
36651;SDS011;53334;51.976;20.144;2023-03-19T13:01:23;6.22;;;5.28;;
36651;SDS011;53334;51.976;20.144;2023-03-19T13:04:02;8.75;;;5.32;;
36651;SDS011;53334;51.976;20.144;2023-03-19T13:06:42;7.10;;;5.15;;
36651;SDS011;53334;51.976;20.144;2023-03-19T13:09:24;11.05;;;5.50;;
36651;SDS011;53334;51.976;20.144;2023-03-19T13:12:02;9.18;;;5.22;;
36651;SDS011;53334;51.976;20.144;2023-03-19T13:14:44;7.00;;;4.88;;
36651;SDS011;53334;51.976;20.144;2023-03-19T13:17:26;11.35;;;5.22;;
36651;SDS011;53334;51.976;20.144;2023-03-19T13:20:13;9.40;;;5.05;;
36651;SDS011;53334;51.976;20.144;2023-03-19T13:25:29;13.48;;;5.30;;
36651;SDS011;53334;51.976;20.144;2023-03-19T13:28:08;8.82;;;5.35;;
36651;SDS011;53334;51.976;20.144;2023-03-19T13:30:57;6.63;;;4.78;;
36651;SDS011;53334;51.976;20.144;2023-03-19T13:33:32;8.32;;;5.53;;
36651;SDS011;53334;51.976;20.144;2023-03-19T13:36:08;11.15;;;6.18;;
36651;SDS011;53334;51.976;20.144;2023-03-19T13:38:46;7.70;;;5.22;;
36651;SDS011;53334;51.976;20.144;2023-03-19T13:44:32;10.05;;;5.30;;
36651;SDS011;53334;51.976;20.144;2023-03-19T13:50:23;6.82;;;4.68;;
36651;SDS011;53334;51.976;20.144;2023-03-19T13:53:19;8.75;;;5.20;;
36651;SDS011;53334;51.976;20.144;2023-03-19T13:56:07;11.27;;;4.85;;
36651;SDS011;53334;51.976;20.144;2023-03-19T14:01:52;10.30;;;5.25;;
36651;SDS011;53334;51.976;20.144;2023-03-19T14:04:28;7.50;;;4.70;;
36651;SDS011;53334;51.976;20.144;2023-03-19T14:07:08;7.50;;;4.88;;
36651;SDS011;53334;51.976;20.144;2023-03-19T14:09:44;12.32;;;5.20;;
36651;SDS011;53334;51.976;20.144;2023-03-19T14:12:21;14.02;;;5.57;;
36651;SDS011;53334;51.976;20.144;2023-03-19T14:15:01;10.30;;;4.95;;
36651;SDS011;53334;51.976;20.144;2023-03-19T14:17:52;7.13;;;5.00;;
36651;SDS011;53334;51.976;20.144;2023-03-19T14:20:31;9.95;;;5.22;;
36651;SDS011;53334;51.976;20.144;2023-03-19T14:23:21;7.50;;;4.30;;
36651;SDS011;53334;51.976;20.144;2023-03-19T14:26:15;6.22;;;4.40;;
36651;SDS011;53334;51.976;20.144;2023-03-19T14:28:58;10.60;;;4.65;;
36651;SDS011;53334;51.976;20.144;2023-03-19T14:31:36;6.15;;;3.63;;
36651;SDS011;53334;51.976;20.144;2023-03-19T14:34:17;8.00;;;4.30;;
36651;SDS011;53334;51.976;20.144;2023-03-19T14:36:56;7.30;;;4.43;;
36651;SDS011;53334;51.976;20.144;2023-03-19T14:39:37;7.13;;;4.00;;
36651;SDS011;53334;51.976;20.144;2023-03-19T14:42:15;9.68;;;4.50;;
36651;SDS011;53334;51.976;20.144;2023-03-19T14:48:05;5.82;;;3.45;;
36651;SDS011;53334;51.976;20.144;2023-03-19T14:51:21;6.15;;;4.35;;
36651;SDS011;53334;51.976;20.144;2023-03-19T14:54:14;5.03;;;3.42;;
36651;SDS011;53334;51.976;20.144;2023-03-19T14:56:55;7.15;;;4.28;;
36651;SDS011;53334;51.976;20.144;2023-03-19T14:59:35;6.68;;;4.25;;
36651;SDS011;53334;51.976;20.144;2023-03-19T15:05:09;6.30;;;3.88;;
36651;SDS011;53334;51.976;20.144;2023-03-19T15:07:51;8.27;;;4.45;;
36651;SDS011;53334;51.976;20.144;2023-03-19T15:10:28;4.82;;;3.28;;
36651;SDS011;53334;51.976;20.144;2023-03-19T15:13:10;5.28;;;4.15;;
36651;SDS011;53334;51.976;20.144;2023-03-19T15:15:57;8.95;;;4.10;;
36651;SDS011;53334;51.976;20.144;2023-03-19T15:18:45;7.68;;;4.43;;
36651;SDS011;53334;51.976;20.144;2023-03-19T15:21:18;5.20;;;3.80;;
36651;SDS011;53334;51.976;20.144;2023-03-19T15:23:53;20.50;;;4.72;;
36651;SDS011;53334;51.976;20.144;2023-03-19T15:29:05;8.13;;;3.80;;
36651;SDS011;53334;51.976;20.144;2023-03-19T15:31:43;4.68;;;3.88;;
36651;SDS011;53334;51.976;20.144;2023-03-19T15:34:32;17.02;;;4.40;;
36651;SDS011;53334;51.976;20.144;2023-03-19T15:37:08;10.50;;;3.60;;
36651;SDS011;53334;51.976;20.144;2023-03-19T15:39:45;9.38;;;3.67;;
36651;SDS011;53334;51.976;20.144;2023-03-19T15:42:23;8.02;;;3.75;;
36651;SDS011;53334;51.976;20.144;2023-03-19T15:45:00;8.38;;;4.38;;
36651;SDS011;53334;51.976;20.144;2023-03-19T15:47:37;8.95;;;3.45;;
36651;SDS011;53334;51.976;20.144;2023-03-19T15:50:16;4.75;;;3.15;;
36651;SDS011;53334;51.976;20.144;2023-03-19T15:52:53;9.43;;;3.92;;
36651;SDS011;53334;51.976;20.144;2023-03-19T15:55:29;6.85;;;3.10;;
36651;SDS011;53334;51.976;20.144;2023-03-19T15:58:07;7.53;;;3.40;;
36651;SDS011;53334;51.976;20.144;2023-03-19T16:00:43;5.82;;;3.55;;
36651;SDS011;53334;51.976;20.144;2023-03-19T16:03:17;7.22;;;3.67;;
36651;SDS011;53334;51.976;20.144;2023-03-19T16:05:57;17.15;;;3.95;;
36651;SDS011;53334;51.976;20.144;2023-03-19T16:08:33;10.82;;;3.28;;
36651;SDS011;53334;51.976;20.144;2023-03-19T16:11:13;14.35;;;3.78;;
36651;SDS011;53334;51.976;20.144;2023-03-19T16:13:58;4.30;;;3.08;;
36651;SDS011;53334;51.976;20.144;2023-03-19T16:16:33;5.97;;;3.13;;
36651;SDS011;53334;51.976;20.144;2023-03-19T16:22:02;13.90;;;3.40;;
36651;SDS011;53334;51.976;20.144;2023-03-19T16:24:43;7.45;;;2.83;;
36651;SDS011;53334;51.976;20.144;2023-03-19T16:27:19;3.83;;;2.92;;
36651;SDS011;53334;51.976;20.144;2023-03-19T16:29:58;4.80;;;2.88;;
36651;SDS011;53334;51.976;20.144;2023-03-19T16:32:32;7.22;;;2.97;;
36651;SDS011;53334;51.976;20.144;2023-03-19T16:35:11;4.32;;;3.10;;